Time;durP1;ratioP1;P1;durP2;ratioP2;P2;SDS_P1;SDS_P2;PMS_P1;PMS_P2;Temp;Humidity;BMP_temperature;BMP_pressure;BME280_temperature;BME280_humidity;BME280_pressure;Samples;Min_cycle;Max_cycle;Signal;HPM_P1;HPM_P2
2024/03/07 00:02:06;;;;;;;;;;;4.90;99.90;;;;;;4943240;29;19922;-80
2024/03/07 00:04:32;;;;;;;;;;;4.90;99.90;;;;;;4927045;29;20255;-80
2024/03/07 00:06:58;;;;;;;;;;;4.90;99.90;;;;;;4943681;28;20041;-80
2024/03/07 00:09:24;;;;;;;;;;;4.90;99.90;;;;;;4943270;28;19969;-80
2024/03/07 00:11:50;;;;;;;;;;;4.90;99.90;;;;;;4945010;28;19914;-80
2024/03/07 00:14:15;;;;;;;;;;;4.80;99.90;;;;;;4944771;28;19918;-80
2024/03/07 00:16:41;;;;;;;;;;;4.80;99.90;;;;;;4944827;28;20395;-80
2024/03/07 00:19:07;;;;;;;;;;;4.80;99.90;;;;;;4942995;28;19918;-80
2024/03/07 00:21:32;;;;;;;;;;;4.80;99.90;;;;;;4928568;28;20781;-80
2024/03/07 00:24:05;;;;;;;;;;;4.80;99.90;;;;;;4925244;29;20672;-80
2024/03/07 00:26:31;;;;;;;;;;;4.70;99.90;;;;;;4940045;28;19993;-80
2024/03/07 00:28:57;;;;;;;;;;;4.70;99.90;;;;;;4943964;28;19918;-80
2024/03/07 00:31:24;;;;;;;;;;;4.70;99.90;;;;;;4928310;28;19993;-80
2024/03/07 00:33:50;;;;;;;;;;;4.70;99.90;;;;;;4943455;28;20279;-80
2024/03/07 00:36:17;;;;;;;;;;;4.60;99.90;;;;;;4943741;28;19914;-80
2024/03/07 00:38:42;;;;;;;;;;;4.60;99.90;;;;;;4943194;28;20060;-80
2024/03/07 00:41:09;;;;;;;;;;;4.60;99.90;;;;;;4959469;28;20351;-80
2024/03/07 00:43:36;;;;;;;;;;;4.60;99.90;;;;;;4976098;28;19925;-80
2024/03/07 00:46:01;;;;;;;;;;;4.60;99.90;;;;;;4944552;28;19915;-80
2024/03/07 00:48:27;;;;;;;;;;;4.60;99.90;;;;;;4958946;28;19918;-80
2024/03/07 00:50:53;;;;;;;;;;;4.60;99.90;;;;;;4942462;28;20331;-78
2024/03/07 00:53:18;;;;;;;;;;;4.60;99.90;;;;;;4959621;28;20614;-79
2024/03/07 00:55:44;;;;;;;;;;;4.50;99.90;;;;;;4952786;28;19926;-79
2024/03/07 00:58:12;;;;;;;;;;;4.50;99.90;;;;;;4929361;28;19922;-78
2024/03/07 01:00:38;;;;;;;;;;;4.50;99.90;;;;;;4944002;28;20712;-78
2024/03/07 01:03:04;;;;;;;;;;;4.50;99.90;;;;;;4943483;28;20013;-79
2024/03/07 01:05:29;;;;;;;;;;;4.60;99.90;;;;;;4928774;28;20479;-79
2024/03/07 01:07:55;;;;;;;;;;;4.60;99.90;;;;;;4954402;28;20308;-78
2024/03/07 01:10:22;;;;;;;;;;;4.60;99.90;;;;;;4975832;28;20408;-78
2024/03/07 01:12:49;;;;;;;;;;;4.60;99.90;;;;;;4947168;28;19934;-78
2024/03/07 01:15:15;;;;;;;;;;;4.60;99.90;;;;;;4943270;28;19925;-78
2024/03/07 01:17:41;;;;;;;;;;;4.70;99.90;;;;;;4959386;28;19918;-78
2024/03/07 01:20:07;;;;;;;;;;;4.70;99.90;;;;;;4959457;28;19945;-79
2024/03/07 01:22:33;;;;;;;;;;;4.70;99.90;;;;;;4968525;28;20351;-78
2024/03/07 01:24:58;;;;;;;;;;;4.70;99.90;;;;;;4959786;28;19923;-79
2024/03/07 01:27:25;;;;;;;;;;;4.60;99.90;;;;;;4956684;28;20005;-78
2024/03/07 01:29:52;;;;;;;;;;;4.80;99.90;;;;;;4960074;28;19914;-78
2024/03/07 01:32:18;;;;;;;;;;;4.80;99.90;;;;;;4939314;28;19989;-79
2024/03/07 01:34:44;;;;;;;;;;;4.80;99.90;;;;;;4941439;28;19918;-79
2024/03/07 01:37:10;;;;;;;;;;;4.80;99.90;;;;;;4959393;28;19928;-78
2024/03/07 01:39:36;;;;;;;;;;;4.80;99.90;;;;;;4926955;28;19918;-78
2024/03/07 01:42:02;;;;;;;;;;;4.80;99.90;;;;;;4959118;28;19928;-78
2024/03/07 01:44:28;;;;;;;;;;;4.90;99.90;;;;;;4943019;28;19918;-78
2024/03/07 01:46:54;;;;;;;;;;;4.90;99.90;;;;;;4960851;28;19917;-78
2024/03/07 01:49:20;;;;;;;;;;;4.90;99.90;;;;;;4954862;28;19925;-78
2024/03/07 01:51:46;;;;;;;;;;;4.90;99.90;;;;;;4958061;29;19953;-78
2024/03/07 01:54:11;;;;;;;;;;;5.00;99.90;;;;;;4945574;28;20231;-78
2024/03/07 01:56:38;;;;;;;;;;;5.00;99.90;;;;;;4952173;28;19918;-78
2024/03/07 01:59:05;;;;;;;;;;;5.00;99.90;;;;;;4946791;28;20296;-78
2024/03/07 02:01:30;;;;;;;;;;;5.00;99.90;;;;;;4961807;28;20151;-79
2024/03/07 02:03:56;;;;;;;;;;;5.00;99.90;;;;;;4941504;29;20058;-79
2024/03/07 02:06:22;;;;;;;;;;;5.10;99.90;;;;;;4943129;29;19918;-79
2024/03/07 02:08:49;;;;;;;;;;;5.00;99.90;;;;;;4911209;29;19918;-79
2024/03/07 02:11:15;;;;;;;;;;;5.00;99.90;;;;;;4927413;29;19918;-79
2024/03/07 02:13:41;;;;;;;;;;;5.10;99.90;;;;;;4942508;29;19929;-79
2024/03/07 02:16:07;;;;;;;;;;;5.10;99.90;;;;;;4954065;28;19918;-79
2024/03/07 02:18:33;;;;;;;;;;;5.10;99.90;;;;;;4961698;28;19960;-79
2024/03/07 02:21:00;;;;;;;;;;;5.10;99.90;;;;;;4961732;28;20474;-79
2024/03/07 02:23:27;;;;;;;;;;;5.10;99.90;;;;;;4930125;28;20250;-79
2024/03/07 02:25:53;;;;;;;;;;;5.10;99.90;;;;;;4977956;28;20323;-79
2024/03/07 02:28:19;;;;;;;;;;;5.00;99.90;;;;;;4977611;28;19918;-79
2024/03/07 02:30:45;;;;;;;;;;;5.10;99.90;;;;;;4961307;28;19925;-79
2024/03/07 02:33:11;;;;;;;;;;;5.10;99.90;;;;;;4961830;28;19961;-79
2024/03/07 02:35:37;;;;;;;;;;;5.20;99.90;;;;;;4971376;28;20007;-79
2024/03/07 02:38:03;;;;;;;;;;;5.10;99.90;;;;;;4952516;28;20579;-79
2024/03/07 02:40:29;;;;;;;;;;;5.10;99.90;;;;;;4938928;28;19933;-79
2024/03/07 02:42:55;;;;;;;;;;;5.20;99.90;;;;;;4929196;28;19918;-79
2024/03/07 02:45:21;;;;;;;;;;;5.20;99.90;;;;;;4976975;28;19925;-79
2024/03/07 02:47:46;;;;;;;;;;;5.20;99.90;;;;;;4960844;28;19918;-79
2024/03/07 02:50:12;;;;;;;;;;;5.20;99.90;;;;;;4931416;28;19922;-79
2024/03/07 02:52:38;;;;;;;;;;;5.20;99.90;;;;;;4976452;28;20332;-79
2024/03/07 02:55:05;;;;;;;;;;;5.20;99.90;;;;;;4960771;28;20310;-79
2024/03/07 02:57:31;;;;;;;;;;;5.20;99.90;;;;;;4941734;29;20043;-79
2024/03/07 02:59:56;;;;;;;;;;;5.20;99.90;;;;;;4942212;28;20271;-79
2024/03/07 03:02:22;;;;;;;;;;;5.30;99.90;;;;;;4960489;28;19918;-79
2024/03/07 03:04:48;;;;;;;;;;;5.40;99.90;;;;;;4957371;28;19933;-79
2024/03/07 03:07:14;;;;;;;;;;;5.30;99.90;;;;;;4937311;28;20247;-79
2024/03/07 03:09:43;;;;;;;;;;;5.30;99.90;;;;;;4944682;28;20635;-79
2024/03/07 03:12:12;;;;;;;;;;;5.30;99.90;;;;;;4941209;29;19919;-79
2024/03/07 03:14:37;;;;;;;;;;;5.40;99.90;;;;;;4956245;28;19918;-78
2024/03/07 03:17:03;;;;;;;;;;;5.30;99.90;;;;;;4964261;28;19914;-78
2024/03/07 03:19:29;;;;;;;;;;;5.40;99.90;;;;;;4964483;28;19917;-78
2024/03/07 03:21:55;;;;;;;;;;;5.40;99.90;;;;;;4961042;28;20326;-79
2024/03/07 03:24:21;;;;;;;;;;;5.40;99.90;;;;;;4945088;28;19926;-80
2024/03/07 03:26:47;;;;;;;;;;;5.40;99.90;;;;;;4981260;28;19917;-80
2024/03/07 03:29:13;;;;;;;;;;;5.40;99.90;;;;;;4965075;28;19969;-80
2024/03/07 03:31:39;;;;;;;;;;;5.40;99.90;;;;;;4980233;28;19918;-80
2024/03/07 03:34:05;;;;;;;;;;;5.40;99.90;;;;;;4946954;28;19925;-80
2024/03/07 03:36:30;;;;;;;;;;;5.40;99.90;;;;;;4946924;28;19977;-80
2024/03/07 03:38:56;;;;;;;;;;;5.50;99.90;;;;;;4977618;28;20004;-80
2024/03/07 03:41:22;;;;;;;;;;;5.50;99.90;;;;;;4946065;28;20009;-80
2024/03/07 03:43:48;;;;;;;;;;;5.50;99.90;;;;;;4945009;28;20549;-80
2024/03/07 03:46:14;;;;;;;;;;;5.50;99.90;;;;;;4947749;28;19918;-79
2024/03/07 03:48:40;;;;;;;;;;;5.50;99.90;;;;;;4960244;28;19928;-80
2024/03/07 03:51:12;;;;;;;;;;;5.60;99.90;;;;;;4948518;28;19914;-80
2024/03/07 03:53:38;;;;;;;;;;;5.60;99.90;;;;;;4963728;28;19914;-80
2024/03/07 03:56:11;;;;;;;;;;;5.60;99.90;;;;;;4943577;28;20013;-81
2024/03/07 03:58:37;;;;;;;;;;;5.60;99.90;;;;;;4943122;28;20502;-80
2024/03/07 04:01:03;;;;;;;;;;;5.60;99.90;;;;;;4963309;28;19929;-80
2024/03/07 04:03:30;;;;;;;;;;;5.60;99.90;;;;;;4948220;28;19918;-79
2024/03/07 04:05:56;;;;;;;;;;;5.60;99.90;;;;;;4948828;28;19918;-80
2024/03/07 04:08:21;;;;;;;;;;;5.70;99.90;;;;;;4979983;28;20215;-80
2024/03/07 04:10:47;;;;;;;;;;;5.60;99.90;;;;;;4963386;28;19913;-81
2024/03/07 04:13:13;;;;;;;;;;;5.60;99.90;;;;;;4980284;28;19925;-79
2024/03/07 04:15:39;;;;;;;;;;;5.60;99.90;;;;;;4960166;28;19914;-79
2024/03/07 04:18:05;;;;;;;;;;;5.70;99.90;;;;;;4980769;28;19925;-80
2024/03/07 04:20:30;;;;;;;;;;;5.60;99.90;;;;;;4982000;28;20337;-80
2024/03/07 04:22:56;;;;;;;;;;;5.70;99.90;;;;;;4966482;28;19925;-80
2024/03/07 04:25:21;;;;;;;;;;;5.70;99.90;;;;;;4994620;28;20001;-80
2024/03/07 04:27:49;;;;;;;;;;;5.70;99.90;;;;;;4936727;28;19923;-79
2024/03/07 04:30:16;;;;;;;;;;;5.70;99.90;;;;;;4958667;28;19932;-78
2024/03/07 04:32:42;;;;;;;;;;;5.80;99.90;;;;;;4955536;28;19918;-80
2024/03/07 04:35:08;;;;;;;;;;;5.80;99.90;;;;;;4960060;28;19914;-79
2024/03/07 04:37:37;;;;;;;;;;;5.80;99.90;;;;;;4965645;28;19944;-81
2024/03/07 04:40:04;;;;;;;;;;;5.90;99.90;;;;;;4959883;28;19921;-79
2024/03/07 04:42:30;;;;;;;;;;;5.90;99.90;;;;;;4962966;28;20029;-79
2024/03/07 04:44:56;;;;;;;;;;;6.00;99.90;;;;;;4947211;28;20652;-80
2024/03/07 04:47:21;;;;;;;;;;;6.00;99.90;;;;;;4978908;28;19918;-79
2024/03/07 04:49:47;;;;;;;;;;;6.00;99.90;;;;;;4978702;28;19914;-79
2024/03/07 04:52:13;;;;;;;;;;;6.10;99.90;;;;;;4978164;28;19977;-78
2024/03/07 04:54:39;;;;;;;;;;;6.10;99.90;;;;;;4995190;28;20008;-80
2024/03/07 04:57:05;;;;;;;;;;;6.10;99.90;;;;;;4948686;28;20013;-79
2024/03/07 04:59:31;;;;;;;;;;;6.20;99.90;;;;;;4958318;28;19921;-79
2024/03/07 05:01:57;;;;;;;;;;;6.20;99.90;;;;;;4961403;28;19917;-79
2024/03/07 05:04:23;;;;;;;;;;;6.20;99.90;;;;;;4973194;28;19973;-79
2024/03/07 05:06:52;;;;;;;;;;;6.20;99.90;;;;;;4974794;28;19914;-79
2024/03/07 05:09:25;;;;;;;;;;;6.20;99.90;;;;;;4974732;28;19936;-79
2024/03/07 05:11:54;;;;;;;;;;;6.20;99.90;;;;;;4975796;28;19922;-79
2024/03/07 05:14:20;;;;;;;;;;;6.20;99.90;;;;;;4962734;28;19921;-78
2024/03/07 05:16:46;;;;;;;;;;;6.20;99.90;;;;;;4978539;28;20001;-79
2024/03/07 05:19:12;;;;;;;;;;;6.20;99.90;;;;;;4977822;28;20275;-79
2024/03/07 05:21:38;;;;;;;;;;;6.20;99.90;;;;;;4979022;28;19922;-79
2024/03/07 05:24:04;;;;;;;;;;;6.20;99.90;;;;;;4943067;28;19922;-79
2024/03/07 05:26:40;;;;;;;;;;;6.30;99.90;;;;;;4944527;28;19914;-78
2024/03/07 05:29:09;;;;;;;;;;;6.30;99.90;;;;;;4946722;28;19945;-81
2024/03/07 05:31:35;;;;;;;;;;;6.20;99.90;;;;;;4978174;28;19918;-80
2024/03/07 05:34:08;;;;;;;;;;;6.30;99.90;;;;;;4978771;28;19921;-80
2024/03/07 05:36:34;;;;;;;;;;;6.30;99.90;;;;;;4990310;28;19918;-80
2024/03/07 05:39:01;;;;;;;;;;;6.30;99.90;;;;;;4945486;28;20453;-80
2024/03/07 05:41:29;;;;;;;;;;;6.30;99.90;;;;;;4962112;28;19918;-80
2024/03/07 05:43:55;;;;;;;;;;;6.30;99.90;;;;;;4955953;28;19928;-81
2024/03/07 05:46:21;;;;;;;;;;;6.30;99.90;;;;;;4991181;28;19914;-80
2024/03/07 05:48:51;;;;;;;;;;;6.30;99.90;;;;;;4978796;28;19944;-77
2024/03/07 05:51:18;;;;;;;;;;;6.30;99.90;;;;;;4977595;28;20017;-79
2024/03/07 05:53:43;;;;;;;;;;;6.30;99.90;;;;;;4936333;28;20509;-78
2024/03/07 05:56:09;;;;;;;;;;;6.40;99.90;;;;;;4952104;28;20001;-78
2024/03/07 05:58:35;;;;;;;;;;;6.30;99.90;;;;;;4963959;28;19918;-79
2024/03/07 06:01:00;;;;;;;;;;;6.30;99.90;;;;;;4968621;28;19922;-79
2024/03/07 06:03:26;;;;;;;;;;;6.40;99.90;;;;;;4966264;28;19977;-78
2024/03/07 06:05:53;;;;;;;;;;;6.40;99.90;;;;;;4962752;28;20385;-80
2024/03/07 06:08:19;;;;;;;;;;;6.30;99.90;;;;;;4962148;28;20001;-80
2024/03/07 06:10:45;;;;;;;;;;;6.30;99.90;;;;;;4959098;28;19953;-77
2024/03/07 06:13:11;;;;;;;;;;;6.30;99.90;;;;;;4971848;28;19976;-78
2024/03/07 06:15:38;;;;;;;;;;;6.30;99.90;;;;;;4943396;28;19922;-78
2024/03/07 06:18:04;;;;;;;;;;;6.30;99.90;;;;;;4958944;28;20035;-78
2024/03/07 06:20:29;;;;;;;;;;;6.30;99.90;;;;;;4959386;28;19918;-79
2024/03/07 06:22:57;;;;;;;;;;;6.30;99.90;;;;;;4979996;28;19922;-79
2024/03/07 06:25:47;;;;;;;;;;;6.30;99.90;;;;;;4963186;28;20350;-79
2024/03/07 06:28:12;;;;;;;;;;;6.30;99.90;;;;;;4956254;28;19914;-79
2024/03/07 06:30:39;;;;;;;;;;;6.30;99.90;;;;;;4975580;28;19920;-78
2024/03/07 06:33:06;;;;;;;;;;;6.30;99.90;;;;;;4949110;28;20316;-78
2024/03/07 06:35:32;;;;;;;;;;;6.30;99.90;;;;;;4954363;28;19914;-79
2024/03/07 06:37:57;;;;;;;;;;;6.30;99.90;;;;;;4962464;28;20409;-78
2024/03/07 06:40:23;;;;;;;;;;;6.30;99.90;;;;;;4962197;28;19968;-78
2024/03/07 06:42:49;;;;;;;;;;;6.30;99.90;;;;;;4981844;28;19914;-78
2024/03/07 06:45:15;;;;;;;;;;;6.30;99.90;;;;;;4966121;28;20089;-78
2024/03/07 06:47:41;;;;;;;;;;;6.30;99.90;;;;;;4932487;28;19922;-78
2024/03/07 06:50:09;;;;;;;;;;;6.30;99.90;;;;;;4998311;28;19918;-78
2024/03/07 06:52:35;;;;;;;;;;;6.30;99.90;;;;;;4980985;28;19914;-78
2024/03/07 06:55:04;;;;;;;;;;;6.30;99.90;;;;;;4980798;28;19914;-78
2024/03/07 06:57:29;;;;;;;;;;;6.20;99.90;;;;;;4962070;28;19918;-78
2024/03/07 06:59:55;;;;;;;;;;;6.30;99.90;;;;;;4978210;28;19918;-78
2024/03/07 07:02:21;;;;;;;;;;;6.30;99.90;;;;;;4964969;28;19917;-78
2024/03/07 07:04:47;;;;;;;;;;;6.30;99.90;;;;;;4981179;28;20224;-78
2024/03/07 07:07:13;;;;;;;;;;;6.30;99.90;;;;;;4964954;28;20004;-78
2024/03/07 07:09:40;;;;;;;;;;;6.40;99.90;;;;;;4961461;28;19997;-78
2024/03/07 07:12:05;;;;;;;;;;;6.40;99.90;;;;;;4946117;28;20381;-78
2024/03/07 07:14:31;;;;;;;;;;;6.40;99.90;;;;;;4965573;28;19921;-79
2024/03/07 07:16:58;;;;;;;;;;;6.50;99.90;;;;;;4983182;28;19914;-78
2024/03/07 07:19:24;;;;;;;;;;;6.50;99.90;;;;;;4982358;28;20681;-79
2024/03/07 07:21:53;;;;;;;;;;;6.40;99.90;;;;;;4997815;28;20008;-79
2024/03/07 07:24:23;;;;;;;;;;;6.60;99.90;;;;;;4968996;28;19933;-79
2024/03/07 07:26:50;;;;;;;;;;;6.50;99.90;;;;;;4946190;28;20057;-78
2024/03/07 07:29:16;;;;;;;;;;;6.50;99.90;;;;;;4947234;28;19925;-78
2024/03/07 07:31:42;;;;;;;;;;;6.50;99.90;;;;;;4949990;28;19918;-78
2024/03/07 07:34:07;;;;;;;;;;;6.50;99.90;;;;;;4951021;28;19924;-78
2024/03/07 07:36:33;;;;;;;;;;;6.50;99.90;;;;;;4950873;28;19917;-78
2024/03/07 07:38:59;;;;;;;;;;;6.50;99.90;;;;;;4968697;28;19922;-77
2024/03/07 07:41:25;;;;;;;;;;;6.60;99.90;;;;;;4963474;28;19930;-78
2024/03/07 07:43:51;;;;;;;;;;;6.60;99.90;;;;;;4946521;28;19914;-78
2024/03/07 07:46:17;;;;;;;;;;;6.60;99.90;;;;;;4978950;28;19928;-78
2024/03/07 07:48:42;;;;;;;;;;;6.50;99.90;;;;;;4921237;29;20254;-78
2024/03/07 07:51:08;;;;;;;;;;;6.60;99.90;;;;;;4936987;28;19914;-79
2024/03/07 07:53:34;;;;;;;;;;;6.60;99.90;;;;;;4978642;28;20220;-78
2024/03/07 07:56:00;;;;;;;;;;;6.60;99.90;;;;;;4953923;28;20060;-78
2024/03/07 07:58:26;;;;;;;;;;;6.60;99.90;;;;;;4950463;28;20333;-78
2024/03/07 08:00:52;;;;;;;;;;;6.60;99.90;;;;;;4918229;28;19949;-78
2024/03/07 08:03:18;;;;;;;;;;;6.60;99.90;;;;;;4949744;29;19946;-78
2024/03/07 08:05:44;;;;;;;;;;;6.70;99.90;;;;;;4934150;29;19977;-78
2024/03/07 08:08:13;;;;;;;;;;;6.70;99.90;;;;;;4942422;29;19922;-78
2024/03/07 08:10:39;;;;;;;;;;;6.70;99.90;;;;;;4949548;28;19914;-80
2024/03/07 08:13:10;;;;;;;;;;;6.70;99.90;;;;;;4964519;28;19960;-80
2024/03/07 08:15:36;;;;;;;;;;;6.70;99.90;;;;;;4948486;28;20017;-80
2024/03/07 08:18:02;;;;;;;;;;;6.70;99.90;;;;;;4948965;29;20399;-80
2024/03/07 08:20:27;;;;;;;;;;;6.70;99.90;;;;;;4927749;28;19914;-79
2024/03/07 08:22:59;;;;;;;;;;;6.70;99.90;;;;;;4960198;28;19926;-79
2024/03/07 08:25:25;;;;;;;;;;;6.70;99.90;;;;;;4957209;28;19984;-79
2024/03/07 08:27:51;;;;;;;;;;;6.70;99.90;;;;;;4960622;28;19918;-79
2024/03/07 08:30:17;;;;;;;;;;;6.80;99.90;;;;;;4943547;28;20283;-79
2024/03/07 08:32:46;;;;;;;;;;;6.80;99.90;;;;;;4946778;28;19916;-80
2024/03/07 08:35:12;;;;;;;;;;;6.80;99.90;;;;;;4932712;28;19918;-79
2024/03/07 08:37:38;;;;;;;;;;;6.80;99.90;;;;;;4956734;28;19973;-79
2024/03/07 08:40:04;;;;;;;;;;;6.80;99.90;;;;;;4958163;28;20351;-79
2024/03/07 08:42:32;;;;;;;;;;;6.80;99.90;;;;;;4961734;28;19945;-79
2024/03/07 08:44:58;;;;;;;;;;;6.80;99.90;;;;;;4946593;28;19917;-80
2024/03/07 08:47:24;;;;;;;;;;;6.80;99.90;;;;;;4962604;28;20403;-79
2024/03/07 08:49:52;;;;;;;;;;;6.80;99.90;;;;;;4961938;28;20350;-79
2024/03/07 08:52:18;;;;;;;;;;;6.80;99.90;;;;;;4961419;28;19918;-79
2024/03/07 08:54:45;;;;;;;;;;;6.80;99.90;;;;;;4946078;28;19932;-79
2024/03/07 08:57:11;;;;;;;;;;;6.90;99.90;;;;;;4958435;28;20246;-79
2024/03/07 08:59:36;;;;;;;;;;;6.90;99.90;;;;;;4957606;28;20280;-79
2024/03/07 09:02:02;;;;;;;;;;;6.90;99.90;;;;;;4970716;28;20505;-79
2024/03/07 09:04:31;;;;;;;;;;;6.90;99.90;;;;;;4953576;28;20295;-79
2024/03/07 09:06:56;;;;;;;;;;;6.90;99.90;;;;;;4945362;28;19917;-79
2024/03/07 09:09:22;;;;;;;;;;;6.90;99.90;;;;;;4951675;28;20367;-80
2024/03/07 09:11:48;;;;;;;;;;;6.80;99.90;;;;;;4968176;28;19914;-80
2024/03/07 09:14:14;;;;;;;;;;;6.90;99.90;;;;;;4960963;28;19921;-80
2024/03/07 09:16:40;;;;;;;;;;;6.90;99.90;;;;;;4929523;28;19922;-80
2024/03/07 09:19:06;;;;;;;;;;;6.90;99.90;;;;;;4973963;28;19918;-80
2024/03/07 09:21:32;;;;;;;;;;;7.00;99.90;;;;;;4978209;28;20298;-80
2024/03/07 09:23:57;;;;;;;;;;;7.00;99.90;;;;;;4977959;28;19926;-80
2024/03/07 09:26:23;;;;;;;;;;;7.00;99.90;;;;;;4977918;28;19914;-79
2024/03/07 09:28:48;;;;;;;;;;;7.00;99.90;;;;;;4961080;28;19949;-79
2024/03/07 09:31:17;;;;;;;;;;;7.10;99.90;;;;;;4944721;28;20414;-80
2024/03/07 09:33:43;;;;;;;;;;;7.10;99.90;;;;;;4947197;28;19918;-80
2024/03/07 09:36:09;;;;;;;;;;;7.20;99.90;;;;;;4979594;28;19921;-80
2024/03/07 09:38:35;;;;;;;;;;;7.20;99.90;;;;;;4980010;28;20629;-80
2024/03/07 09:41:01;;;;;;;;;;;7.20;99.90;;;;;;4973237;28;19975;-79
2024/03/07 09:43:28;;;;;;;;;;;7.20;99.90;;;;;;4943234;28;20394;-79
2024/03/07 09:45:54;;;;;;;;;;;7.30;99.90;;;;;;4948104;28;20000;-80
2024/03/07 09:48:20;;;;;;;;;;;7.20;99.90;;;;;;4977391;28;20004;-80
2024/03/07 09:50:46;;;;;;;;;;;7.30;99.90;;;;;;4973612;28;19929;-80
2024/03/07 09:53:16;;;;;;;;;;;7.30;99.90;;;;;;4947274;28;19925;-80
2024/03/07 09:55:41;;;;;;;;;;;7.30;99.90;;;;;;4934674;28;19914;-79
2024/03/07 09:58:07;;;;;;;;;;;7.30;99.90;;;;;;4978670;28;20017;-80
2024/03/07 10:00:33;;;;;;;;;;;7.30;99.90;;;;;;4962731;28;19914;-80
2024/03/07 10:02:59;;;;;;;;;;;7.30;99.90;;;;;;4935611;28;19972;-79
2024/03/07 10:05:26;;;;;;;;;;;7.20;99.90;;;;;;4961735;28;19914;-79
2024/03/07 10:07:52;;;;;;;;;;;7.30;99.90;;;;;;4960294;28;20057;-79
2024/03/07 10:10:21;;;;;;;;;;;7.30;99.90;;;;;;4959802;28;20393;-80
2024/03/07 10:12:47;;;;;;;;;;;7.40;99.90;;;;;;4981694;28;20084;-79
2024/03/07 10:15:13;;;;;;;;;;;7.50;99.90;;;;;;4960332;28;20337;-79
2024/03/07 10:17:42;;;;;;;;;;;7.60;99.90;;;;;;4957980;28;19918;-80
2024/03/07 10:20:13;;;;;;;;;;;7.60;99.90;;;;;;4930937;28;19933;-80
2024/03/07 10:22:39;;;;;;;;;;;7.70;99.90;;;;;;4947981;28;19945;-80
2024/03/07 10:25:05;;;;;;;;;;;7.70;99.90;;;;;;4980856;28;20418;-80
2024/03/07 10:27:32;;;;;;;;;;;7.70;99.90;;;;;;4997328;28;19988;-80
2024/03/07 10:29:59;;;;;;;;;;;7.70;99.90;;;;;;4964370;28;20744;-78
2024/03/07 10:32:25;;;;;;;;;;;7.60;99.90;;;;;;4964705;28;19918;-78
2024/03/07 10:34:51;;;;;;;;;;;7.60;99.90;;;;;;4965492;28;19917;-78
2024/03/07 10:37:17;;;;;;;;;;;7.60;99.90;;;;;;4965795;28;19981;-78
2024/03/07 10:39:46;;;;;;;;;;;7.60;99.90;;;;;;4971875;28;19914;-78
2024/03/07 10:42:16;;;;;;;;;;;7.60;99.90;;;;;;4981538;28;19917;-78
2024/03/07 10:44:45;;;;;;;;;;;7.60;99.90;;;;;;4998037;28;19921;-78
2024/03/07 10:47:15;;;;;;;;;;;7.60;99.90;;;;;;4947999;28;20608;-78
2024/03/07 10:49:52;;;;;;;;;;;7.70;99.90;;;;;;4962327;28;19914;-78
2024/03/07 10:52:25;;;;;;;;;;;8.00;99.90;;;;;;4962125;28;19914;-78
2024/03/07 10:55:23;;;;;;;;;;;8.30;99.90;;;;;;4961949;28;19913;-78
2024/03/07 10:57:54;;;;;;;;;;;8.60;99.90;;;;;;4985685;28;19917;-77
2024/03/07 11:00:29;;;;;;;;;;;8.70;99.90;;;;;;4949279;28;19928;-78
2024/03/07 11:02:55;;;;;;;;;;;8.60;99.90;;;;;;4954391;28;19926;-78
2024/03/07 11:05:24;;;;;;;;;;;8.60;99.90;;;;;;4965005;28;20546;-78
2024/03/07 11:07:50;;;;;;;;;;;8.40;99.90;;;;;;4965023;28;20300;-78
2024/03/07 11:10:17;;;;;;;;;;;8.40;99.90;;;;;;4980930;28;20263;-77
2024/03/07 11:12:43;;;;;;;;;;;8.20;99.90;;;;;;4978393;28;19929;-78
2024/03/07 11:15:14;;;;;;;;;;;8.20;99.90;;;;;;4964545;28;19941;-78
2024/03/07 11:17:42;;;;;;;;;;;8.20;99.90;;;;;;4981031;28;19913;-78
2024/03/07 11:20:23;;;;;;;;;;;8.20;99.90;;;;;;4979035;28;20001;-79
2024/03/07 11:22:49;;;;;;;;;;;8.10;99.90;;;;;;4966055;28;19922;-78
2024/03/07 11:25:19;;;;;;;;;;;8.10;99.90;;;;;;4964060;28;20004;-78
2024/03/07 11:27:55;;;;;;;;;;;8.10;99.90;;;;;;4976465;28;19914;-78
2024/03/07 11:30:23;;;;;;;;;;;8.10;99.90;;;;;;4949070;28;19964;-78
2024/03/07 11:32:53;;;;;;;;;;;8.10;99.90;;;;;;4976583;28;19954;-78
2024/03/07 11:35:32;;;;;;;;;;;8.10;99.90;;;;;;4959697;28;19923;-78
2024/03/07 11:37:58;;;;;;;;;;;8.20;99.90;;;;;;4960507;28;20032;-78
2024/03/07 11:40:24;;;;;;;;;;;8.40;99.90;;;;;;4975142;28;19957;-78
2024/03/07 11:42:50;;;;;;;;;;;8.50;99.90;;;;;;4957565;29;20586;-78
2024/03/07 11:45:24;;;;;;;;;;;8.60;99.90;;;;;;4958378;28;19923;-78
2024/03/07 11:48:11;;;;;;;;;;;8.60;99.90;;;;;;4942395;29;19915;-78
2024/03/07 11:50:48;;;;;;;;;;;8.60;99.90;;;;;;4946337;29;20323;-78
2024/03/07 11:53:14;;;;;;;;;;;8.60;99.90;;;;;;4959263;28;20371;-78
2024/03/07 11:55:46;;;;;;;;;;;8.50;99.90;;;;;;4960506;28;19922;-78
2024/03/07 11:58:12;;;;;;;;;;;8.50;99.90;;;;;;4944359;28;20288;-77
2024/03/07 12:00:46;;;;;;;;;;;8.40;99.90;;;;;;4975483;28;19925;-78
2024/03/07 12:03:18;;;;;;;;;;;8.50;99.90;;;;;;4943631;28;19918;-78
2024/03/07 12:05:44;;;;;;;;;;;8.90;99.90;;;;;;4943624;28;20354;-78
2024/03/07 12:08:10;;;;;;;;;;;9.10;99.90;;;;;;4958857;28;20312;-78
2024/03/07 12:10:43;;;;;;;;;;;9.10;99.90;;;;;;4960013;28;20064;-78
2024/03/07 12:13:11;;;;;;;;;;;9.10;99.90;;;;;;4960585;28;19918;-78
2024/03/07 12:15:38;;;;;;;;;;;9.00;99.90;;;;;;4960924;28;19922;-78
2024/03/07 12:18:04;;;;;;;;;;;8.90;99.90;;;;;;4960678;28;19922;-78
2024/03/07 12:20:35;;;;;;;;;;;8.90;99.90;;;;;;4928436;28;19918;-78
2024/03/07 12:23:03;;;;;;;;;;;8.90;99.90;;;;;;4962132;28;19918;-77
2024/03/07 12:25:29;;;;;;;;;;;8.90;99.90;;;;;;4965622;28;20078;-77
2024/03/07 12:28:05;;;;;;;;;;;8.90;99.90;;;;;;4978793;28;20057;-78
2024/03/07 12:30:34;;;;;;;;;;;8.80;99.90;;;;;;4974710;28;19944;-78
2024/03/07 12:33:00;;;;;;;;;;;8.80;99.90;;;;;;4979111;28;19965;-78
2024/03/07 12:35:26;;;;;;;;;;;8.80;99.90;;;;;;4978911;28;19922;-78
2024/03/07 12:37:54;;;;;;;;;;;8.90;99.90;;;;;;4959115;28;19925;-77
2024/03/07 12:40:20;;;;;;;;;;;8.90;99.90;;;;;;4966258;28;20077;-77
2024/03/07 12:42:47;;;;;;;;;;;9.00;99.90;;;;;;4965291;28;19922;-78
2024/03/07 12:45:17;;;;;;;;;;;9.10;99.90;;;;;;4959436;28;19914;-78
2024/03/07 12:47:46;;;;;;;;;;;9.20;99.90;;;;;;4961518;28;19922;-77
2024/03/07 12:50:13;;;;;;;;;;;9.20;99.90;;;;;;4977816;28;19914;-77
2024/03/07 12:52:40;;;;;;;;;;;9.30;99.90;;;;;;4962540;28;20411;-78
2024/03/07 12:55:07;;;;;;;;;;;9.10;99.90;;;;;;4927043;28;19918;-78
2024/03/07 12:57:33;;;;;;;;;;;9.10;99.90;;;;;;4975519;28;19926;-78
2024/03/07 12:59:58;;;;;;;;;;;9.10;99.90;;;;;;4946402;28;20224;-77
2024/03/07 13:02:29;;;;;;;;;;;9.00;99.90;;;;;;4958726;28;19929;-78
2024/03/07 13:04:55;;;;;;;;;;;9.00;99.90;;;;;;4943484;28;20357;-77
2024/03/07 13:07:21;;;;;;;;;;;9.10;99.90;;;;;;4977206;28;19997;-78
2024/03/07 13:09:48;;;;;;;;;;;9.10;99.90;;;;;;4961558;28;19918;-78
2024/03/07 13:12:14;;;;;;;;;;;9.20;99.90;;;;;;4994513;28;19917;-77
2024/03/07 13:14:43;;;;;;;;;;;9.30;99.90;;;;;;4965027;28;19925;-76
2024/03/07 13:17:09;;;;;;;;;;;9.30;99.90;;;;;;4965769;28;19926;-77
2024/03/07 13:19:38;;;;;;;;;;;9.30;99.90;;;;;;4986797;28;19923;-77
2024/03/07 13:22:36;;;;;;;;;;;9.30;99.90;;;;;;4948403;28;19921;-79
2024/03/07 13:25:13;;;;;;;;;;;9.40;99.90;;;;;;4928906;28;20312;-79
2024/03/07 13:27:43;;;;;;;;;;;9.30;99.90;;;;;;4960849;28;20311;-78
2024/03/07 13:30:22;;;;;;;;;;;9.40;99.90;;;;;;4951459;28;20188;-78
2024/03/07 13:32:49;;;;;;;;;;;9.40;99.90;;;;;;4976797;28;19917;-77
2024/03/07 13:35:15;;;;;;;;;;;9.40;99.90;;;;;;4961682;28;19917;-77
2024/03/07 13:37:41;;;;;;;;;;;9.50;99.90;;;;;;4945477;28;19913;-78
2024/03/07 13:40:22;;;;;;;;;;;9.60;99.90;;;;;;4956602;28;20497;-78
2024/03/07 13:42:58;;;;;;;;;;;9.50;99.90;;;;;;4960931;28;19973;-78
2024/03/07 13:45:26;;;;;;;;;;;10.00;99.90;;;;;;4997556;28;19960;-78
2024/03/07 13:47:54;;;;;;;;;;;10.70;99.90;;;;;;4965934;28;19918;-78
2024/03/07 13:50:22;;;;;;;;;;;11.10;99.90;;;;;;4966080;28;19918;-78
2024/03/07 13:53:04;;;;;;;;;;;11.50;99.90;;;;;;4948951;28;19915;-78
2024/03/07 13:55:34;;;;;;;;;;;11.70;98.10;;;;;;4948961;28;20648;-78
2024/03/07 13:58:02;;;;;;;;;;;12.00;99.90;;;;;;4967342;28;19917;-78
2024/03/07 14:00:40;;;;;;;;;;;12.20;98.30;;;;;;4949087;28;19913;-78
2024/03/07 14:03:24;;;;;;;;;;;12.40;98.50;;;;;;4948826;28;19925;-78
2024/03/07 14:05:58;;;;;;;;;;;12.70;99.50;;;;;;4964327;28;20518;-78
2024/03/07 14:08:33;;;;;;;;;;;12.90;97.30;;;;;;4976118;28;19994;-78
2024/03/07 14:11:15;;;;;;;;;;;13.10;98.60;;;;;;4981152;28;19918;-78
2024/03/07 14:13:46;;;;;;;;;;;13.20;94.40;;;;;;4960435;28;19918;-78
2024/03/07 14:16:20;;;;;;;;;;;13.40;93.10;;;;;;4987027;28;19914;-78
2024/03/07 14:19:04;;;;;;;;;;;13.60;92.90;;;;;;4979077;28;19922;-78
2024/03/07 14:21:50;;;;;;;;;;;13.80;93.20;;;;;;4977752;28;19972;-78
2024/03/07 14:24:16;;;;;;;;;;;14.00;92.00;;;;;;4969892;28;19937;-77
2024/03/07 14:27:00;;;;;;;;;;;14.30;93.60;;;;;;4979573;28;20339;-78
2024/03/07 14:29:47;;;;;;;;;;;14.80;93.00;;;;;;4961878;28;19948;-78
2024/03/07 14:32:13;;;;;;;;;;;14.70;92.10;;;;;;4937166;28;19914;-78